GGFTA EGJB-EGJB

Flight info

Callsign GGFTA
Flight time 0h 4m
Altitude 3000
Route BASIK
Aircraft P28A/L-SDFRY/C

Departure

Time 2026-04-27 14:28
Airport Guernsey Airport (EGJB)

Arrival

Time 2026-04-27 14:32
Airport Guernsey Airport (EGJB)
Time Latitude Longitude Altitude Speed Heading
2026-04-27 14:16 49.43294 -2.60201 313 ft 0 kts 177°
2026-04-27 14:18 49.43295 -2.60216 312 ft 6 kts
2026-04-27 14:19 49.43331 -2.60212 312 ft 7 kts 284°
2026-04-27 14:19 49.43331 -2.60368 310 ft 23 kts 263°
2026-04-27 14:19 49.43326 -2.60611 307 ft 23 kts 275°
2026-04-27 14:19 49.43356 -2.60851 304 ft 23 kts 276°
2026-04-27 14:20 49.43359 -2.61083 301 ft 21 kts 268°
2026-04-27 14:20 49.43360 -2.61238 298 ft 0 kts 286°
2026-04-27 14:26 49.43360 -2.61239 298 ft 2 kts 286°
2026-04-27 14:26 49.43415 -2.61348 297 ft 23 kts 329°
2026-04-27 14:26 49.43469 -2.61292 299 ft 1 kts 92°
2026-04-27 14:27 49.43476 -2.60997 304 ft 52 kts 88°
2026-04-27 14:27 49.43499 -2.60308 447 ft 65 kts 82°
2026-04-27 14:27 49.43537 -2.59624 706 ft 61 kts 76°
2026-04-27 14:27 49.43596 -2.58905 828 ft 72 kts 76°
2026-04-27 14:28 49.43669 -2.58117 958 ft 77 kts 75°
2026-04-27 14:28 49.43508 -2.57276 1040 ft 95 kts 125°
2026-04-27 14:28 49.42847 -2.56979 1153 ft 110 kts 176°
2026-04-27 14:28 49.42098 -2.57008 1136 ft 107 kts 176°
2026-04-27 14:29 49.41404 -2.57384 1136 ft 113 kts 234°
2026-04-27 14:29 49.41254 -2.58524 1139 ft 112 kts 268°
2026-04-27 14:29 49.41163 -2.59734 1119 ft 115 kts 266°
2026-04-27 14:29 49.41052 -2.60934 1162 ft 113 kts 265°
2026-04-27 14:30 49.40926 -2.62133 1137 ft 115 kts 265°
2026-04-27 14:30 49.40808 -2.63323 1061 ft 108 kts 274°
2026-04-27 14:30 49.41227 -2.63931 1005 ft 82 kts
2026-04-27 14:30 49.41760 -2.64039 991 ft 73 kts 357°
2026-04-27 14:31 49.42280 -2.64152 858 ft 79 kts 356°
2026-04-27 14:31 49.42803 -2.64231 836 ft 74 kts
2026-04-27 14:31 49.43238 -2.63876 763 ft 68 kts 47°
2026-04-27 14:31 49.43389 -2.63204 653 ft 70 kts 73°
2026-04-27 14:32 49.43429 -2.62501 573 ft 60 kts 79°
2026-04-27 14:32 49.43448 -2.61867 396 ft 59 kts 80°
2026-04-27 14:32 49.43470 -2.61283 343 ft 52 kts 79°
2026-04-27 14:32 49.43480 -2.60775 306 ft 38 kts 88°
2026-04-27 14:33 49.43498 -2.60309 312 ft 62 kts 86°
2026-04-27 14:33 49.43521 -2.59632 485 ft 69 kts 77°
2026-04-27 14:33 49.43549 -2.58873 698 ft 70 kts 81°
2026-04-27 14:33 49.43595 -2.58117 856 ft 72 kts 77°
2026-04-27 14:34 49.43623 -2.57365 1066 ft 72 kts 81°
2026-04-27 14:34 49.43361 -2.56608 1175 ft 100 kts 137°
2026-04-27 14:34 49.42637 -2.56454 1204 ft 111 kts 177°
2026-04-27 14:34 49.41871 -2.56493 1117 ft 111 kts 179°
2026-04-27 14:35 49.41360 -2.56675 1045 ft 119 kts 214°
2026-04-27 14:35 49.41085 -2.58177 1136 ft 115 kts 271°
2026-04-27 14:35 49.41060 -2.58996 1143 ft 116 kts 271°
2026-04-27 14:35 49.41013 -2.60250 1121 ft 120 kts 271°
2026-04-27 14:36 49.40938 -2.61980 1071 ft 124 kts 271°
2026-04-27 14:36 49.40894 -2.63295 1073 ft 124 kts 270°
2026-04-27 14:36 49.41207 -2.64383 1035 ft 110 kts 340°
2026-04-27 14:36 49.41912 -2.64543 1061 ft 92 kts 358°
2026-04-27 14:37 49.42301 -2.64595 1041 ft 81 kts 359°
2026-04-27 14:37 49.42863 -2.64664 938 ft 82 kts
2026-04-27 14:37 49.43351 -2.64545 771 ft 63 kts 38°
2026-04-27 14:37 49.43420 -2.63871 585 ft 68 kts 85°
2026-04-27 14:38 49.43418 -2.63168 565 ft 65 kts 82°
2026-04-27 14:38 49.43442 -2.62165 448 ft 71 kts 89°
2026-04-27 14:38 49.43461 -2.61690 390 ft 61 kts 81°
2026-04-27 14:38 49.43472 -2.61074 319 ft 55 kts 77°
2026-04-27 14:39 49.43488 -2.60575 307 ft 50 kts 87°
2026-04-27 14:39 49.43504 -2.59858 466 ft 66 kts 81°
2026-04-27 14:39 49.43513 -2.59174 698 ft 68 kts 78°
2026-04-27 14:39 49.43556 -2.58408 825 ft 76 kts 78°
2026-04-27 14:40 49.43604 -2.57606 1038 ft 77 kts 83°
2026-04-27 14:40 49.43291 -2.56893 1115 ft 98 kts 150°
2026-04-27 14:40 49.42547 -2.56823 1020 ft 112 kts 177°
2026-04-27 14:40 49.41837 -2.56827 1058 ft 98 kts 177°
2026-04-27 14:41 49.41183 -2.57039 1037 ft 106 kts 229°
2026-04-27 14:41 49.41021 -2.58080 1072 ft 97 kts 270°
2026-04-27 14:41 49.40946 -2.59153 1196 ft 106 kts 267°
2026-04-27 14:41 49.40867 -2.60328 1216 ft 111 kts 271°
2026-04-27 14:42 49.40803 -2.61518 1249 ft 107 kts 270°
2026-04-27 14:42 49.40756 -2.62692 1233 ft 114 kts 276°
2026-04-27 14:42 49.41200 -2.63488 1248 ft 100 kts 354°
2026-04-27 14:42 49.41911 -2.63578 1166 ft 104 kts
2026-04-27 14:43 49.42571 -2.63607 860 ft 91 kts
2026-04-27 14:43 49.43125 -2.63553 721 ft 75 kts 26°
2026-04-27 14:43 49.43379 -2.62972 541 ft 70 kts 76°
2026-04-27 14:43 49.43438 -2.62321 450 ft 59 kts 74°
2026-04-27 14:44 49.43455 -2.61643 391 ft 68 kts 82°
2026-04-27 14:44 49.43477 -2.60911 307 ft 61 kts 84°
2026-04-27 14:44 49.43494 -2.60384 309 ft 39 kts 89°
2026-04-27 14:44 49.43507 -2.59827 442 ft 53 kts 84°
2026-04-27 14:45 49.43551 -2.59160 563 ft 67 kts 78°
2026-04-27 14:45 49.43599 -2.58467 783 ft 67 kts 78°
2026-04-27 14:45 49.43662 -2.57737 976 ft 71 kts 78°
2026-04-27 14:45 49.43464 -2.56975 1116 ft 97 kts 136°
2026-04-27 14:46 49.42730 -2.56782 1184 ft 120 kts 176°
2026-04-27 14:46 49.41908 -2.56846 1067 ft 115 kts 181°
2026-04-27 14:46 49.41289 -2.57423 1074 ft 110 kts 259°
2026-04-27 14:46 49.41199 -2.58584 1061 ft 112 kts 269°
2026-04-27 14:47 49.41138 -2.59802 1010 ft 115 kts 272°
2026-04-27 14:47 49.41099 -2.61048 930 ft 118 kts 275°
2026-04-27 14:47 49.41040 -2.62306 888 ft 117 kts 270°
2026-04-27 14:47 49.41252 -2.63332 952 ft 96 kts 338°
2026-04-27 14:48 49.41911 -2.63513 837 ft 92 kts 354°
2026-04-27 14:48 49.42887 -2.63830 729 ft 60 kts 351°
2026-04-27 14:48 49.43309 -2.63714 631 ft 69 kts 37°
2026-04-27 14:49 49.43404 -2.62958 548 ft 74 kts 75°
2026-04-27 14:49 49.43441 -2.62214 447 ft 63 kts 74°
2026-04-27 14:49 49.43460 -2.61576 380 ft 60 kts 78°
2026-04-27 14:49 49.43475 -2.60958 306 ft 50 kts 75°
2026-04-27 14:50 49.43494 -2.60462 308 ft 60 kts 88°
2026-04-27 14:50 49.43506 -2.59794 485 ft 66 kts 78°
2026-04-27 14:50 49.43569 -2.59097 698 ft 68 kts 72°
2026-04-27 14:50 49.43625 -2.58329 881 ft 69 kts 78°
2026-04-27 14:51 49.43526 -2.57577 1040 ft 86 kts 112°
2026-04-27 14:51 49.42959 -2.57106 1159 ft 107 kts 168°
2026-04-27 14:51 49.42217 -2.57122 1047 ft 108 kts 175°
2026-04-27 14:51 49.41550 -2.57256 1104 ft 99 kts 220°
2026-04-27 14:52 49.41346 -2.58274 1084 ft 106 kts 272°
2026-04-27 14:52 49.41282 -2.59435 1080 ft 111 kts 270°
2026-04-27 14:52 49.41216 -2.60617 1118 ft 110 kts 270°
2026-04-27 14:52 49.41118 -2.61818 1071 ft 118 kts 266°
2026-04-27 14:53 49.41278 -2.62890 1103 ft 97 kts 331°
2026-04-27 14:53 49.41906 -2.63071 1094 ft 90 kts 357°
2026-04-27 14:53 49.42458 -2.63255 1085 ft 70 kts 352°
2026-04-27 14:53 49.42917 -2.63439 856 ft 69 kts 354°
2026-04-27 14:54 49.43348 -2.63290 641 ft 65 kts 49°
2026-04-27 14:54 49.43418 -2.62630 490 ft 58 kts 82°
2026-04-27 14:54 49.43458 -2.62030 436 ft 55 kts 75°
2026-04-27 14:54 49.43468 -2.61392 355 ft 64 kts 82°
2026-04-27 14:55 49.43482 -2.60805 306 ft 34 kts 90°
2026-04-27 14:55 49.43427 -2.60656 307 ft 18 kts 175°
2026-04-27 14:55 49.43326 -2.60538 308 ft 25 kts 89°
2026-04-27 14:55 49.43332 -2.60263 312 ft 22 kts 89°
2026-04-27 14:56 49.43288 -2.60182 313 ft 3 kts 223°